Time;durP1;ratioP1;P1;durP2;ratioP2;P2;SDS_P1;SDS_P2;PMS_P1;PMS_P2;Temp;Humidity;BMP_temperature;BMP_pressure;BME280_temperature;BME280_humidity;BME280_pressure;Samples;Min_cycle;Max_cycle;Signal;HPM_P1;HPM_P2
2023/11/15 00:01:10;;;;;;;20.43;4.87;;;24.60;71.30;;;;;;4926044;29;20219;-73
2023/11/15 00:03:38;;;;;;;17.10;4.63;;;24.70;70.80;;;;;;4937692;29;20179;-73
2023/11/15 00:06:05;;;;;;;14.60;4.63;;;24.60;71.60;;;;;;4935642;29;20749;-73
2023/11/15 00:08:33;;;;;;;16.13;4.40;;;25.00;70.90;;;;;;4934314;29;20176;-73
2023/11/15 00:11:00;;;;;;;15.93;4.40;;;25.30;69.60;;;;;;4932482;29;20546;-72
2023/11/15 00:13:28;;;;;;;15.07;4.50;;;25.60;68.40;;;;;;4912729;29;21007;-72
2023/11/15 00:15:56;;;;;;;14.70;4.23;;;25.40;67.90;;;;;;4934492;29;20187;-72
2023/11/15 00:18:23;;;;;;;16.50;4.40;;;25.70;68.20;;;;;;4933629;29;20642;-72
2023/11/15 00:20:51;;;;;;;19.70;4.47;;;25.70;66.30;;;;;;4933961;29;20219;-73
2023/11/15 00:23:18;;;;;;;13.60;3.90;;;25.70;66.80;;;;;;4934695;29;20182;-73
2023/11/15 00:25:46;;;;;;;17.30;4.20;;;25.70;67.20;;;;;;4934305;29;20218;-72
2023/11/15 00:28:13;;;;;;;20.17;4.40;;;25.60;65.80;;;;;;4928806;29;20221;-72
2023/11/15 00:30:41;;;;;;;16.90;4.20;;;25.40;66.30;;;;;;4934546;29;20551;-73
2023/11/15 00:33:08;;;;;;;12.40;3.90;;;25.20;67.20;;;;;;4928766;29;20183;-73
2023/11/15 00:35:36;;;;;;;10.70;3.97;;;25.30;67.20;;;;;;4907785;29;20624;-72
2023/11/15 00:38:04;;;;;;;13.00;3.83;;;25.40;66.90;;;;;;4929035;29;20180;-73
2023/11/15 00:40:31;;;;;;;14.00;4.23;;;25.70;66.80;;;;;;4934731;29;20207;-72
2023/11/15 00:42:59;;;;;;;16.37;4.20;;;26.00;66.60;;;;;;4934643;29;20199;-71
2023/11/15 00:45:26;;;;;;;16.87;4.10;;;25.90;65.10;;;;;;4918023;29;20530;-73
2023/11/15 00:47:54;;;;;;;9.83;4.47;;;25.90;65.30;;;;;;4935184;29;20653;-72
2023/11/15 00:50:21;;;;;;;19.17;3.93;;;25.90;65.30;;;;;;4935313;29;20188;-72
2023/11/15 00:52:49;;;;;;;11.60;4.10;;;26.00;65.30;;;;;;4935541;29;20207;-72
2023/11/15 00:55:17;;;;;;;18.73;4.20;;;26.00;65.50;;;;;;4935086;29;20517;-71
2023/11/15 00:57:47;;;;;;;13.90;3.87;;;26.20;64.80;;;;;;4935294;29;20176;-71
2023/11/15 01:00:27;;;;;;;15.47;4.10;;;26.10;64.30;;;;;;4921332;29;20277;-71
2023/11/15 01:02:57;;;;;;;13.37;4.13;;;26.10;65.00;;;;;;4935551;29;20502;-71
2023/11/15 01:05:25;;;;;;;11.90;3.63;;;26.30;64.40;;;;;;4935316;29;20191;-73
2023/11/15 01:07:52;;;;;;;19.80;4.50;;;26.60;64.50;;;;;;4934725;29;20547;-73
2023/11/15 01:10:20;;;;;;;14.03;4.60;;;26.30;64.90;;;;;;4934558;29;20342;-73
2023/11/15 01:12:48;;;;;;;11.23;3.30;;;26.30;66.00;;;;;;4935078;29;20188;-72
2023/11/15 01:15:15;;;;;;;15.47;4.50;;;26.20;64.80;;;;;;4933060;29;20188;-71
2023/11/15 01:17:43;;;;;;;13.00;4.40;;;26.30;65.30;;;;;;4934458;29;20649;-73
2023/11/15 01:20:12;;;;;;;10.67;3.57;;;26.60;64.10;;;;;;4934567;29;20722;-71
2023/11/15 01:22:40;;;;;;;11.97;3.63;;;26.30;64.00;;;;;;4935260;29;20192;-72
2023/11/15 01:25:08;;;;;;;14.70;3.70;;;25.80;65.70;;;;;;4935010;29;20180;-72
2023/11/15 01:27:36;;;;;;;12.47;3.90;;;25.80;66.60;;;;;;4935060;29;20244;-72
2023/11/15 01:30:04;;;;;;;11.47;3.83;;;25.50;66.00;;;;;;4934571;29;20677;-72
2023/11/15 01:32:31;;;;;;;12.67;3.97;;;25.70;66.60;;;;;;4934997;29;20271;-78
2023/11/15 01:34:59;;;;;;;14.93;4.30;;;26.00;66.10;;;;;;4935085;29;20299;-72
2023/11/15 01:37:26;;;;;;;14.33;4.33;;;26.30;64.30;;;;;;4935056;29;20184;-73
2023/11/15 01:39:54;;;;;;;13.83;4.03;;;26.20;65.20;;;;;;4934901;29;20201;-75
2023/11/15 01:42:21;;;;;;;18.13;4.23;;;26.10;65.10;;;;;;4917853;29;20184;-71
2023/11/15 01:44:48;;;;;;;13.37;3.57;;;26.40;65.00;;;;;;4938252;29;20190;-71
2023/11/15 01:47:16;;;;;;;10.87;3.23;;;26.90;63.30;;;;;;4938232;29;20234;-75
2023/11/15 01:49:43;;;;;;;16.40;3.77;;;26.90;63.00;;;;;;4937634;29;20271;-71
2023/11/15 01:52:11;;;;;;;15.10;3.60;;;27.00;63.10;;;;;;4937814;29;20235;-71
2023/11/15 01:54:38;;;;;;;11.27;3.30;;;26.90;63.10;;;;;;4938310;29;20184;-71
2023/11/15 01:57:06;;;;;;;11.90;3.30;;;27.20;63.10;;;;;;4937994;29;20623;-74
2023/11/15 01:59:33;;;;;;;7.77;2.93;;;27.40;61.30;;;;;;4938066;29;20203;-74
2023/11/15 02:02:01;;;;;;;14.53;3.20;;;27.70;60.70;;;;;;4937871;29;20740;-73
2023/11/15 02:04:28;;;;;;;8.60;2.63;;;27.30;61.50;;;;;;4937599;29;20283;-74
2023/11/15 02:06:56;;;;;;;9.33;3.20;;;27.30;60.90;;;;;;4937894;29;20184;-74
2023/11/15 02:09:23;;;;;;;9.70;3.20;;;26.90;61.20;;;;;;4938294;29;20179;-73
2023/11/15 02:11:51;;;;;;;11.10;3.80;;;26.30;63.00;;;;;;4934381;29;20214;-73
2023/11/15 02:14:19;;;;;;;11.40;4.03;;;25.90;64.10;;;;;;4936023;29;20664;-72
2023/11/15 02:16:46;;;;;;;11.43;3.50;;;25.80;65.20;;;;;;4936535;29;20176;-72
2023/11/15 02:19:15;;;;;;;9.33;3.50;;;25.60;65.60;;;;;;4937403;29;20259;-73
2023/11/15 02:21:43;;;;;;;12.73;3.60;;;25.40;65.90;;;;;;4936095;29;20234;-72
2023/11/15 02:24:11;;;;;;;14.33;4.37;;;25.20;66.90;;;;;;4937130;29;20180;-76
2023/11/15 02:26:39;;;;;;;10.93;3.67;;;24.90;67.60;;;;;;4937505;29;20203;-71
2023/11/15 02:29:06;;;;;;;9.77;2.90;;;24.80;68.00;;;;;;4937367;29;20184;-73
2023/11/15 02:31:33;;;;;;;14.60;3.97;;;24.60;68.80;;;;;;4934722;29;20224;-71
2023/11/15 02:34:01;;;;;;;14.30;3.93;;;24.30;69.40;;;;;;4936901;29;20215;-76
2023/11/15 02:36:28;;;;;;;13.23;3.33;;;24.20;69.30;;;;;;4937147;29;20199;-71
2023/11/15 02:38:56;;;;;;;9.83;3.40;;;24.00;70.80;;;;;;4937014;29;20239;-74
2023/11/15 02:41:25;;;;;;;13.60;3.60;;;24.00;71.20;;;;;;4936728;29;20223;-73
2023/11/15 02:43:52;;;;;;;17.20;4.37;;;24.10;71.70;;;;;;4935998;29;20702;-74
2023/11/15 02:46:22;;;;;;;12.43;4.17;;;24.10;71.30;;;;;;4936420;29;20235;-72
2023/11/15 02:48:51;;;;;;;9.47;3.70;;;23.80;71.00;;;;;;4919824;29;20545;-73
2023/11/15 02:51:18;;;;;;;13.83;4.03;;;23.60;71.70;;;;;;4936427;29;20186;-72
2023/11/15 02:53:46;;;;;;;14.03;3.60;;;23.60;72.40;;;;;;4935999;29;20635;-72
2023/11/15 02:56:14;;;;;;;11.93;4.10;;;23.70;72.50;;;;;;4934255;29;20180;-72
2023/11/15 02:58:41;;;;;;;14.30;4.30;;;23.80;72.10;;;;;;4926273;29;20558;-71
2023/11/15 03:01:11;;;;;;;10.23;3.47;;;24.00;71.80;;;;;;4936768;29;20212;-74
2023/11/15 03:03:39;;;;;;;10.93;3.50;;;24.60;69.50;;;;;;4935992;29;20601;-71
2023/11/15 03:06:07;;;;;;;16.00;3.87;;;24.80;69.30;;;;;;4936521;29;20215;-77
2023/11/15 03:08:36;;;;;;;14.37;3.60;;;24.60;69.70;;;;;;4935011;29;20607;-75
2023/11/15 03:11:03;;;;;;;13.43;4.40;;;24.20;70.80;;;;;;4936460;29;20183;-72
2023/11/15 03:13:31;;;;;;;11.73;4.00;;;24.30;71.60;;;;;;4936515;29;20263;-75
2023/11/15 03:15:59;;;;;;;9.80;3.47;;;24.10;71.40;;;;;;4935980;29;20183;-76
2023/11/15 03:18:28;;;;;;;13.13;4.07;;;24.00;72.00;;;;;;4936515;29;20177;-74
2023/11/15 03:20:56;;;;;;;17.67;4.67;;;23.90;73.20;;;;;;4935915;29;20242;-72
2023/11/15 03:23:23;;;;;;;14.77;4.03;;;24.30;72.00;;;;;;4936023;29;20183;-70
2023/11/15 03:25:50;;;;;;;11.60;3.57;;;24.60;70.50;;;;;;4935864;29;20199;-78
2023/11/15 03:28:18;;;;;;;16.17;3.30;;;24.60;70.20;;;;;;4919122;29;20256;-73
2023/11/15 03:30:45;;;;;;;8.40;3.10;;;24.60;70.40;;;;;;4917798;29;20526;-73
2023/11/15 03:33:13;;;;;;;13.87;4.10;;;24.70;70.40;;;;;;4936421;29;20184;-74
2023/11/15 03:35:40;;;;;;;13.20;4.07;;;24.80;69.90;;;;;;4935533;29;20572;-74
2023/11/15 03:38:08;;;;;;;12.90;3.30;;;24.90;70.10;;;;;;4936573;29;20317;-72
2023/11/15 03:40:35;;;;;;;10.17;3.60;;;25.50;68.30;;;;;;4930656;29;20216;-74
2023/11/15 03:43:03;;;;;;;15.70;3.57;;;26.00;66.50;;;;;;4931645;29;20215;-72
2023/11/15 03:45:30;;;;;;;10.73;3.30;;;25.80;67.00;;;;;;4932920;29;20186;-71
2023/11/15 03:47:58;;;;;;;16.33;3.40;;;25.70;66.80;;;;;;4932015;29;20188;-73
2023/11/15 03:50:26;;;;;;;11.73;3.70;;;25.80;67.80;;;;;;4935709;29;20215;-73
2023/11/15 03:52:54;;;;;;;12.73;3.60;;;25.90;66.60;;;;;;4934289;29;20184;-71
2023/11/15 03:55:21;;;;;;;10.87;3.17;;;25.70;67.60;;;;;;4929872;29;20655;-74
2023/11/15 03:57:50;;;;;;;9.63;3.30;;;26.30;66.00;;;;;;4921618;29;20189;-73
2023/11/15 04:00:17;;;;;;;11.60;3.63;;;26.80;63.40;;;;;;4933114;29;20692;-71
2023/11/15 04:02:48;;;;;;;11.73;2.83;;;27.00;62.90;;;;;;4934192;29;20611;-72
2023/11/15 04:05:16;;;;;;;13.23;3.50;;;26.40;64.30;;;;;;4934614;29;20177;-76
2023/11/15 04:07:44;;;;;;;15.07;3.77;;;26.20;65.90;;;;;;4916143;29;20219;-73
2023/11/15 04:10:12;;;;;;;10.57;3.80;;;26.60;64.50;;;;;;4935104;29;20243;-72
2023/11/15 04:12:40;;;;;;;12.90;3.70;;;26.30;65.20;;;;;;4934076;29;20719;-74
2023/11/15 04:15:09;;;;;;;9.17;3.20;;;26.30;64.50;;;;;;4935246;29;20315;-75
2023/11/15 04:17:36;;;;;;;11.93;3.40;;;25.30;67.90;;;;;;4934981;29;20215;-73
2023/11/15 04:20:06;;;;;;;17.13;4.13;;;24.80;70.00;;;;;;4926822;29;20554;-72
2023/11/15 04:22:34;;;;;;;16.07;3.77;;;24.50;71.30;;;;;;4934099;29;20188;-73
2023/11/15 04:25:01;;;;;;;15.97;4.00;;;24.30;71.50;;;;;;4933895;29;20188;-73
2023/11/15 04:27:30;;;;;;;10.77;3.40;;;24.10;72.30;;;;;;4934596;29;20176;-74
2023/11/15 04:29:57;;;;;;;9.27;3.50;;;24.30;71.90;;;;;;4933833;29;20615;-79
2023/11/15 04:32:25;;;;;;;13.87;3.60;;;24.60;70.70;;;;;;4935029;29;20187;-71
2023/11/15 04:34:53;;;;;;;10.50;3.60;;;24.70;70.70;;;;;;4935413;29;20180;-72
2023/11/15 04:37:21;;;;;;;14.87;3.40;;;24.70;70.30;;;;;;4935321;29;20655;-72
2023/11/15 04:39:48;;;;;;;14.63;3.50;;;24.70;70.90;;;;;;4931989;29;20180;-77
2023/11/15 04:42:18;;;;;;;15.77;3.67;;;24.90;69.70;;;;;;4924696;29;20543;-72
2023/11/15 04:44:46;;;;;;;13.17;3.40;;;25.80;68.10;;;;;;4935033;29;20211;-75
2023/11/15 04:47:14;;;;;;;14.00;3.67;;;26.00;65.60;;;;;;4930637;29;20702;-78
2023/11/15 04:49:42;;;;;;;12.87;3.50;;;25.60;67.70;;;;;;4928434;29;20180;-73
2023/11/15 04:52:10;;;;;;;11.37;3.47;;;25.30;68.30;;;;;;4935121;29;20184;-72
2023/11/15 04:54:37;;;;;;;11.27;3.97;;;25.20;68.90;;;;;;4921401;29;20592;-75
2023/11/15 04:57:05;;;;;;;12.87;3.73;;;25.50;68.50;;;;;;4932471;29;20183;-74
2023/11/15 04:59:32;;;;;;;8.80;3.50;;;25.30;69.30;;;;;;4935509;29;20590;-73
2023/11/15 05:02:00;;;;;;;18.37;3.60;;;25.20;69.20;;;;;;4932947;29;20327;-72
2023/11/15 05:04:27;;;;;;;11.67;3.33;;;25.40;69.90;;;;;;4934293;29;20183;-72
2023/11/15 05:06:55;;;;;;;14.90;4.00;;;26.00;67.20;;;;;;4935031;29;20199;-74
2023/11/15 05:09:24;;;;;;;16.63;3.63;;;26.40;66.30;;;;;;4934010;29;20183;-73
2023/11/15 05:11:51;;;;;;;11.20;3.53;;;26.20;65.90;;;;;;4933594;29;20207;-74
2023/11/15 05:14:19;;;;;;;12.50;3.63;;;25.90;67.60;;;;;;4934182;29;20192;-73
2023/11/15 05:16:46;;;;;;;10.23;3.33;;;25.90;66.90;;;;;;4934434;29;20208;-73
2023/11/15 05:19:13;;;;;;;11.73;3.30;;;26.40;65.80;;;;;;4937958;29;20176;-72
2023/11/15 05:21:41;;;;;;;12.07;3.43;;;26.00;66.40;;;;;;4938422;29;20263;-73
2023/11/15 05:24:09;;;;;;;11.93;3.60;;;25.20;68.60;;;;;;4938553;29;20189;-73
2023/11/15 05:26:36;;;;;;;10.97;4.40;;;24.80;69.80;;;;;;4937838;29;20188;-79
2023/11/15 05:29:05;;;;;;;14.53;3.73;;;24.70;70.50;;;;;;4936795;29;20266;-73
2023/11/15 05:31:32;;;;;;;11.90;3.53;;;24.50;71.00;;;;;;4937355;29;20650;-72
2023/11/15 05:34:00;;;;;;;10.27;2.67;;;24.30;71.80;;;;;;4938281;29;20191;-75
2023/11/15 05:36:27;;;;;;;10.77;3.33;;;24.10;72.10;;;;;;4933155;29;20522;-76
2023/11/15 05:38:54;;;;;;;10.60;3.20;;;25.10;69.60;;;;;;4938440;29;20702;-74
2023/11/15 05:41:22;;;;;;;9.33;2.77;;;25.40;67.60;;;;;;4938259;29;20220;-75
2023/11/15 05:43:49;;;;;;;10.23;2.87;;;25.30;68.00;;;;;;4937063;29;20180;-72
2023/11/15 05:46:16;;;;;;;7.33;2.77;;;24.90;68.90;;;;;;4937180;29;20191;-73
2023/11/15 05:48:44;;;;;;;5.47;1.90;;;25.30;67.90;;;;;;4937941;29;20188;-73
2023/11/15 05:51:11;;;;;;;3.73;1.37;;;24.80;66.90;;;;;;4938106;29;20187;-76
2023/11/15 05:53:38;;;;;;;4.23;1.40;;;24.70;66.80;;;;;;4937406;29;20180;-72
2023/11/15 05:56:06;;;;;;;4.40;1.17;;;24.20;67.80;;;;;;4937342;29;20650;-71
2023/11/15 05:58:33;;;;;;;3.13;1.30;;;24.20;67.20;;;;;;4936913;29;20195;-73
2023/11/15 06:01:01;;;;;;;6.73;1.30;;;24.00;68.40;;;;;;4938107;29;20247;-76
2023/11/15 06:03:28;;;;;;;4.00;1.37;;;23.90;69.30;;;;;;4936690;29;20188;-76
2023/11/15 06:05:59;;;;;;;5.20;1.30;;;24.10;68.40;;;;;;4937560;29;20179;-72
2023/11/15 06:08:26;;;;;;;5.57;1.30;;;24.10;68.20;;;;;;4937060;29;20711;-73
2023/11/15 06:10:54;;;;;;;8.07;1.60;;;23.80;69.10;;;;;;4937840;29;20243;-73
2023/11/15 06:13:21;;;;;;;6.90;1.73;;;23.60;69.20;;;;;;4937706;29;20184;-74
2023/11/15 06:15:48;;;;;;;6.13;1.13;;;23.50;69.40;;;;;;4937474;29;20180;-73
2023/11/15 06:18:16;;;;;;;5.43;1.10;;;23.60;69.30;;;;;;4936061;29;20278;-73
2023/11/15 06:20:43;;;;;;;7.13;1.60;;;23.70;68.70;;;;;;4935466;29;20267;-74
2023/11/15 06:23:10;;;;;;;5.43;1.43;;;23.80;69.00;;;;;;4937394;29;20179;-73
2023/11/15 06:25:39;;;;;;;5.83;1.67;;;24.00;69.00;;;;;;4937321;29;20183;-73
2023/11/15 06:28:06;;;;;;;5.57;1.43;;;24.10;69.20;;;;;;4936490;29;20180;-72
2023/11/15 06:30:34;;;;;;;5.37;1.20;;;24.20;67.40;;;;;;4937186;29;20223;-72
2023/11/15 06:33:01;;;;;;;7.20;1.43;;;24.20;67.30;;;;;;4919982;29;20184;-71
2023/11/15 06:35:28;;;;;;;3.80;1.47;;;24.10;68.00;;;;;;4935125;29;20544;-73
2023/11/15 06:37:56;;;;;;;4.07;1.20;;;24.00;68.00;;;;;;4934684;29;20513;-72
2023/11/15 06:40:23;;;;;;;4.33;1.47;;;23.90;68.50;;;;;;4936314;29;20215;-72
2023/11/15 06:42:50;;;;;;;6.57;1.53;;;23.80;68.50;;;;;;4936119;29;20207;-72
2023/11/15 06:45:18;;;;;;;4.33;1.33;;;24.10;68.30;;;;;;4936903;29;20184;-73
2023/11/15 06:47:45;;;;;;;6.07;1.43;;;24.00;68.00;;;;;;4937241;29;20180;-72
2023/11/15 06:50:13;;;;;;;3.70;0.97;;;23.70;68.30;;;;;;4936983;29;20194;-73
2023/11/15 06:52:40;;;;;;;4.43;1.10;;;23.40;68.60;;;;;;4937171;29;20179;-72
2023/11/15 06:55:10;;;;;;;5.60;1.57;;;23.30;68.50;;;;;;4937485;29;20552;-74
2023/11/15 06:57:41;;;;;;;5.50;1.40;;;23.10;69.50;;;;;;4934043;29;20198;-72
2023/11/15 07:00:11;;;;;;;5.67;1.63;;;23.10;69.60;;;;;;4935507;29;20250;-73
2023/11/15 07:02:40;;;;;;;6.73;1.93;;;23.00;71.10;;;;;;4936383;29;20190;-74
2023/11/15 07:05:09;;;;;;;2.93;1.30;;;23.00;70.70;;;;;;4935983;29;20215;-72
2023/11/15 07:07:37;;;;;;;5.30;1.63;;;23.10;70.50;;;;;;4936539;29;20208;-73
2023/11/15 07:10:06;;;;;;;4.07;1.60;;;23.10;70.50;;;;;;4935891;29;20207;-73
2023/11/15 07:12:36;;;;;;;5.30;1.50;;;23.30;70.30;;;;;;4935400;29;20192;-72
2023/11/15 07:15:15;;;;;;;4.67;1.90;;;23.20;69.90;;;;;;4936452;29;20200;-74
2023/11/15 07:17:43;;;;;;;3.03;1.50;;;23.00;70.40;;;;;;4936631;29;20271;-72
2023/11/15 07:20:11;;;;;;;7.50;1.30;;;22.80;71.40;;;;;;4936538;29;20240;-74
2023/11/15 07:22:38;;;;;;;4.63;1.80;;;22.80;72.00;;;;;;4936545;29;20211;-74
2023/11/15 07:25:12;;;;;;;4.63;1.70;;;22.60;71.80;;;;;;4923509;29;20168;-72
2023/11/15 07:27:40;;;;;;;4.73;1.50;;;22.50;72.40;;;;;;4936319;29;20556;-72
2023/11/15 07:30:08;;;;;;;5.07;1.60;;;22.50;72.30;;;;;;4919548;29;20586;-74
2023/11/15 07:32:35;;;;;;;5.23;1.70;;;22.50;72.50;;;;;;4919265;29;20317;-71
2023/11/15 07:35:03;;;;;;;5.90;1.20;;;22.40;72.80;;;;;;4936162;29;20254;-73
2023/11/15 07:37:30;;;;;;;5.93;1.47;;;22.40;72.80;;;;;;4921845;29;20191;-72
2023/11/15 07:39:57;;;;;;;3.67;1.20;;;22.30;73.00;;;;;;4935870;29;20184;-74
2023/11/15 07:42:25;;;;;;;7.77;1.70;;;22.30;73.20;;;;;;4936217;29;20192;-71
2023/11/15 07:44:53;;;;;;;5.00;1.73;;;22.30;72.70;;;;;;4936059;29;20180;-73
2023/11/15 07:47:20;;;;;;;6.00;1.40;;;22.30;73.20;;;;;;4936085;29;20196;-71
2023/11/15 07:49:47;;;;;;;3.33;1.70;;;22.40;73.60;;;;;;4935595;29;20179;-72
2023/11/15 07:52:15;;;;;;;4.83;1.50;;;22.50;73.60;;;;;;4936203;29;20179;-71
2023/11/15 07:54:42;;;;;;;5.10;1.77;;;22.50;73.80;;;;;;4935909;29;20745;-73
2023/11/15 07:57:09;;;;;;;6.13;1.73;;;22.50;73.00;;;;;;4936006;29;20207;-73
2023/11/15 07:59:37;;;;;;;3.80;1.60;;;22.50;72.80;;;;;;4935953;29;20655;-72
2023/11/15 08:02:05;;;;;;;4.70;1.50;;;22.40;72.50;;;;;;4936083;29;20208;-72
2023/11/15 08:04:32;;;;;;;5.53;1.50;;;22.30;72.70;;;;;;4935660;29;20235;-75
2023/11/15 08:07:00;;;;;;;4.97;1.63;;;22.20;73.40;;;;;;4935979;29;20602;-72
2023/11/15 08:09:32;;;;;;;5.43;1.60;;;22.30;73.70;;;;;;4936088;29;20185;-75
2023/11/15 08:12:01;;;;;;;5.30;1.50;;;22.20;73.80;;;;;;4936173;29;20383;-73
2023/11/15 08:14:30;;;;;;;4.30;1.30;;;22.00;74.00;;;;;;4934340;29;20183;-71
2023/11/15 08:17:01;;;;;;;5.23;1.70;;;21.90;74.20;;;;;;4935628;29;20631;-75
2023/11/15 08:19:29;;;;;;;3.60;1.33;;;21.80;74.70;;;;;;4935686;29;20198;-72
2023/11/15 08:21:56;;;;;;;4.37;1.50;;;21.80;75.10;;;;;;4935138;29;20315;-72
2023/11/15 08:24:24;;;;;;;4.67;1.67;;;21.90;75.10;;;;;;4935658;29;20235;-71
2023/11/15 08:26:55;;;;;;;5.00;1.83;;;21.80;75.00;;;;;;4935684;29;20547;-72
2023/11/15 08:29:22;;;;;;;4.33;1.47;;;21.80;75.40;;;;;;4935418;29;20176;-73
2023/11/15 08:31:50;;;;;;;3.90;1.50;;;21.80;75.60;;;;;;4935004;29;20247;-71
2023/11/15 08:34:20;;;;;;;5.57;1.63;;;21.80;75.70;;;;;;4935680;29;20184;-70
2023/11/15 08:36:48;;;;;;;4.63;1.80;;;21.70;75.90;;;;;;4924029;29;20219;-73
2023/11/15 08:39:16;;;;;;;4.57;1.50;;;21.70;75.90;;;;;;4932688;29;20263;-72
2023/11/15 08:41:45;;;;;;;4.83;1.60;;;21.70;76.00;;;;;;4935361;29;20204;-72
2023/11/15 08:44:13;;;;;;;4.30;1.43;;;21.70;76.20;;;;;;4935695;29;20180;-72
2023/11/15 08:46:47;;;;;;;8.27;1.80;;;21.60;76.60;;;;;;4935312;29;20581;-72
2023/11/15 08:49:15;;;;;;;5.20;2.13;;;21.60;76.90;;;;;;4935446;29;20212;-74
2023/11/15 08:51:50;;;;;;;8.37;2.33;;;21.50;77.00;;;;;;4935811;29;20180;-73
2023/11/15 08:54:17;;;;;;;5.73;1.47;;;21.50;76.90;;;;;;4939456;29;20194;-73
2023/11/15 08:56:45;;;;;;;5.10;1.50;;;21.40;77.20;;;;;;4939515;29;20543;-73
2023/11/15 08:59:13;;;;;;;7.30;1.60;;;21.50;77.50;;;;;;4935282;29;20666;-75
2023/11/15 09:01:41;;;;;;;5.60;1.60;;;21.40;77.60;;;;;;4937173;29;20212;-73
2023/11/15 09:04:12;;;;;;;5.33;1.67;;;21.40;77.50;;;;;;4938375;29;20180;-76
2023/11/15 09:06:46;;;;;;;9.37;1.90;;;21.40;77.40;;;;;;4937891;29;20203;-72
2023/11/15 09:09:15;;;;;;;7.57;1.50;;;21.30;77.50;;;;;;4938674;29;20195;-73
2023/11/15 09:11:43;;;;;;;5.30;1.93;;;21.30;77.70;;;;;;4937973;29;20216;-72
2023/11/15 09:14:13;;;;;;;7.27;1.63;;;21.30;77.70;;;;;;4938432;29;20172;-72
2023/11/15 09:16:42;;;;;;;4.73;1.50;;;21.30;77.90;;;;;;4927861;29;20214;-73
2023/11/15 09:19:15;;;;;;;8.40;1.80;;;21.30;77.70;;;;;;4917624;29;20215;-73
2023/11/15 09:21:44;;;;;;;7.73;1.60;;;21.30;77.80;;;;;;4934925;29;20227;-72
2023/11/15 09:24:11;;;;;;;7.97;2.07;;;21.30;77.70;;;;;;4934885;29;20638;-72
2023/11/15 09:26:38;;;;;;;8.53;1.70;;;21.20;78.10;;;;;;4935232;29;20206;-73
2023/11/15 09:29:06;;;;;;;7.27;2.07;;;21.20;78.10;;;;;;4938941;29;20176;-73
2023/11/15 09:31:35;;;;;;;8.00;1.97;;;21.20;78.20;;;;;;4938609;29;20569;-73
2023/11/15 09:34:02;;;;;;;7.97;1.90;;;21.30;78.20;;;;;;4933077;29;20266;-74
2023/11/15 09:36:31;;;;;;;4.63;1.60;;;21.30;78.20;;;;;;4934079;29;20267;-73
2023/11/15 09:38:58;;;;;;;5.77;1.97;;;21.30;78.00;;;;;;4933792;29;20229;-72
2023/11/15 09:41:25;;;;;;;7.40;1.73;;;21.30;78.10;;;;;;4933216;29;20335;-72
2023/11/15 09:43:55;;;;;;;5.93;1.93;;;21.30;78.10;;;;;;4937782;29;20183;-73
2023/11/15 09:46:23;;;;;;;6.83;1.90;;;21.30;78.00;;;;;;4934476;29;20191;-71
2023/11/15 09:48:54;;;;;;;4.47;1.40;;;21.40;78.10;;;;;;4934604;29;20184;-71
2023/11/15 09:51:25;;;;;;;3.53;1.40;;;21.40;78.10;;;;;;4930199;29;20347;-72
2023/11/15 09:53:53;;;;;;;4.23;1.47;;;21.40;77.90;;;;;;4932845;29;20191;-72
2023/11/15 09:56:21;;;;;;;6.60;1.80;;;21.40;78.00;;;;;;4937225;29;20584;-72
2023/11/15 09:58:49;;;;;;;6.43;1.90;;;21.40;78.20;;;;;;4938070;29;20243;-73
2023/11/15 10:01:17;;;;;;;4.63;1.60;;;21.30;78.10;;;;;;4936993;29;20708;-72
2023/11/15 10:03:44;;;;;;;5.47;1.53;;;21.30;78.30;;;;;;4936341;29;20187;-73
2023/11/15 10:06:12;;;;;;;8.67;1.90;;;21.30;78.40;;;;;;4937286;29;20182;-73
2023/11/15 10:08:55;;;;;;;3.70;1.40;;;21.30;78.70;;;;;;4932592;29;20212;-72
2023/11/15 10:11:24;;;;;;;11.33;1.90;;;21.30;78.70;;;;;;4925622;29;20176;-72
2023/11/15 10:14:15;;;;;;;7.30;1.90;;;21.30;78.50;;;;;;4937074;29;20683;-73
2023/11/15 10:16:51;;;;;;;6.63;1.90;;;21.20;78.60;;;;;;4937689;29;20176;-72
2023/11/15 10:19:27;;;;;;;5.40;1.60;;;21.20;79.00;;;;;;4936955;29;20665;-73
2023/11/15 10:22:05;;;;;;;10.17;1.97;;;21.20;78.80;;;;;;4937053;29;20318;-73
2023/11/15 10:24:34;;;;;;;7.17;2.13;;;21.20;78.90;;;;;;4935970;29;20175;-73
2023/11/15 10:27:14;;;;;;;5.17;1.47;;;21.20;79.00;;;;;;4930217;29;20216;-72
2023/11/15 10:29:52;;;;;;;3.87;1.53;;;21.10;79.00;;;;;;4928261;29;20250;-73
2023/11/15 10:32:23;;;;;;;6.90;1.60;;;21.10;79.00;;;;;;4933178;29;20187;-72
2023/11/15 10:34:54;;;;;;;5.73;1.80;;;21.10;79.10;;;;;;4936978;29;20792;-72
2023/11/15 10:37:21;;;;;;;10.43;1.43;;;21.10;79.20;;;;;;4935918;29;20199;-72
2023/11/15 10:39:49;;;;;;;7.80;1.73;;;21.10;78.90;;;;;;4936876;29;20665;-71
2023/11/15 10:42:17;;;;;;;4.73;1.60;;;21.00;79.30;;;;;;4933945;29;20746;-72
2023/11/15 10:44:48;;;;;;;10.30;1.67;;;21.00;79.50;;;;;;4933362;29;20184;-71
2023/11/15 10:47:19;;;;;;;3.13;1.60;;;20.90;79.70;;;;;;4935761;29;20251;-73
2023/11/15 10:49:56;;;;;;;5.47;1.60;;;20.90;79.80;;;;;;4936585;29;21013;-72
2023/11/15 10:52:26;;;;;;;3.37;1.50;;;20.80;79.90;;;;;;4937338;29;20187;-73
2023/11/15 10:54:57;;;;;;;6.13;1.43;;;20.80;80.00;;;;;;4917231;29;20192;-73
2023/11/15 10:57:27;;;;;;;3.87;1.80;;;20.80;80.30;;;;;;4935185;29;20271;-72
2023/11/15 10:59:56;;;;;;;5.27;1.43;;;20.80;80.20;;;;;;4931539;29;20196;-72
2023/11/15 11:02:25;;;;;;;5.33;1.63;;;20.80;80.50;;;;;;4935571;29;20204;-72
2023/11/15 11:04:54;;;;;;;4.70;1.83;;;20.80;80.60;;;;;;4935960;29;20180;-72
2023/11/15 11:07:28;;;;;;;8.37;2.13;;;20.80;80.70;;;;;;4944312;29;20551;-71
2023/11/15 11:10:24;;;;;;;4.87;1.80;;;20.80;80.70;;;;;;4933947;29;20212;-72
2023/11/15 11:12:51;;;;;;;7.57;1.93;;;20.80;80.80;;;;;;4910128;29;20623;-72
2023/11/15 11:15:30;;;;;;;6.27;1.83;;;20.90;80.50;;;;;;4932906;29;20266;-72
2023/11/15 11:18:15;;;;;;;9.27;2.00;;;20.90;80.30;;;;;;4924818;29;20172;-72
2023/11/15 11:20:56;;;;;;;7.27;1.93;;;20.90;80.30;;;;;;4932515;29;20319;-72
2023/11/15 11:23:23;;;;;;;7.27;2.00;;;21.00;80.30;;;;;;4935854;29;20682;-73
2023/11/15 11:25:52;;;;;;;6.07;1.63;;;21.00;80.20;;;;;;4936407;29;20180;-72
2023/11/15 11:28:23;;;;;;;5.70;1.67;;;21.00;79.90;;;;;;4936398;29;20267;-74
2023/11/15 11:31:18;;;;;;;5.97;1.70;;;21.00;79.90;;;;;;4933601;29;20705;-72
2023/11/15 11:34:10;;;;;;;4.73;1.77;;;21.00;79.80;;;;;;4931242;29;20184;-72
2023/11/15 11:36:58;;;;;;;6.63;1.70;;;21.00;79.70;;;;;;5076889;27;20611;-72
2023/11/15 11:39:47;;;;;;;5.57;1.87;;;21.10;79.70;;;;;;5070402;28;20187;-72
2023/11/15 11:42:28;;;;;;;6.53;2.27;;;21.20;79.60;;;;;;5069859;28;20171;-72
2023/11/15 11:44:55;;;;;;;6.77;2.03;;;21.20;79.50;;;;;;5063183;28;20167;-72
2023/11/15 11:47:23;;;;;;;6.43;2.17;;;21.20;79.50;;;;;;5069333;28;20183;-71
2023/11/15 11:49:52;;;;;;;5.97;1.80;;;21.20;79.60;;;;;;5069377;28;20641;-72
2023/11/15 11:52:19;;;;;;;9.10;1.93;;;21.20;79.90;;;;;;5069163;28;20175;-71
2023/11/15 11:54:53;;;;;;;5.83;1.80;;;21.20;79.60;;;;;;5069275;28;20537;-72
2023/11/15 11:57:24;;;;;;;4.77;1.43;;;21.20;79.60;;;;;;5067496;28;20581;-71
2023/11/15 12:00:12;;;;;;;5.00;1.57;;;21.20;79.60;;;;;;5066508;28;20175;-72
2023/11/15 12:02:40;;;;;;;4.47;1.73;;;21.10;79.80;;;;;;5064814;28;20191;-71
2023/11/15 12:05:17;;;;;;;8.67;2.00;;;21.20;79.90;;;;;;5067523;28;20183;-71
2023/11/15 12:07:46;;;;;;;5.87;1.50;;;21.10;79.80;;;;;;5067506;28;20297;-71
2023/11/15 12:10:15;;;;;;;3.97;1.20;;;21.10;79.80;;;;;;5066144;28;20180;-71
2023/11/15 12:12:46;;;;;;;7.37;1.63;;;21.10;79.80;;;;;;5083126;28;20190;-71
2023/11/15 12:15:15;;;;;;;6.07;1.73;;;21.10;79.80;;;;;;5068623;28;20215;-71
2023/11/15 12:17:45;;;;;;;4.07;1.40;;;21.10;79.80;;;;;;5068613;28;20183;-71
2023/11/15 12:20:34;;;;;;;3.63;1.60;;;21.10;79.70;;;;;;5069233;28;20180;-71
2023/11/15 12:23:12;;;;;;;3.67;1.50;;;21.10;79.70;;;;;;5068808;28;20179;-71
2023/11/15 12:25:51;;;;;;;4.00;2.03;;;21.10;79.60;;;;;;5068180;28;20549;-70
2023/11/15 12:28:21;;;;;;;6.23;1.87;;;21.10;79.80;;;;;;5068989;28;20191;-71
2023/11/15 12:30:49;;;;;;;7.30;1.87;;;21.10;80.10;;;;;;5068053;28;20252;-71
2023/11/15 12:33:17;;;;;;;2.73;1.57;;;21.10;80.10;;;;;;5064680;28;20183;-72
2023/11/15 12:35:46;;;;;;;4.47;1.50;;;21.10;79.90;;;;;;5062107;28;20230;-73
2023/11/15 12:38:14;;;;;;;3.77;1.30;;;21.10;80.00;;;;;;5069242;28;20160;-72
2023/11/15 12:40:44;;;;;;;7.70;1.77;;;21.10;80.00;;;;;;5068564;28;20183;-72
2023/11/15 12:43:30;;;;;;;5.97;1.63;;;21.10;79.90;;;;;;5067392;28;20171;-72
2023/11/15 12:46:02;;;;;;;5.13;1.97;;;21.10;80.00;;;;;;5067066;28;20766;-71
2023/11/15 12:48:30;;;;;;;4.50;1.60;;;21.10;79.80;;;;;;5052896;28;20540;-72
2023/11/15 12:51:05;;;;;;;6.17;1.83;;;21.10;79.70;;;;;;5054615;28;20176;-72
2023/11/15 12:53:35;;;;;;;5.53;1.70;;;21.10;79.70;;;;;;5055452;28;20517;-72